Time,TemperatureF,DewpointF,PressureIn,WindDirection,WindDirectionDegrees,WindSpeedMPH,WindSpeedGustMPH,Humidity,HourlyPrecipIn,Conditions,Clouds,dailyrainin,SolarRadiationWatts/m^2,SoftwareType,DateUTC
2013-02-08 00:00:00,1.8,-11.4,30.56,SE,134,4.6,4.6,53,0.00,OVC,FEW,0.00,0.0,WeatherDisplay:10.37,2013-02-08 05:00:00,
2013-02-08 00:01:00,1.8,-11.4,30.56,SE,134,4.6,4.6,53,0.00,OVC,FEW,0.00,0.0,WeatherDisplay:10.37,2013-02-08 05:01:00,
2013-02-08 00:02:00,1.8,-11.4,30.56,SE,131,3.5,3.5,53,0.00,OVC,FEW,0.00,0.0,WeatherDisplay:10.37,2013-02-08 05:02:00,
2013-02-08 00:07:00,2.1,-11.5,30.56,SE,124,3.0,3.0,52,0.00,OVC,FEW,0.00,0.0,WeatherDisplay:10.37,2013-02-08 05:07:00,
2013-02-08 00:09:00,2.2,-11.8,30.56,SE,129,5.0,5.0,51,0.00,OVC,FEW,0.00,0.0,WeatherDisplay:10.37,2013-02-08 05:09:00,
2013-02-08 00:14:00,2.4,-11.6,30.56,SE,138,3.5,3.5,51,0.00,OVC,FEW,0.00,0.0,WeatherDisplay:10.37,2013-02-08 05:14:00,
2013-02-08 00:19:00,2.6,-11.8,30.56,SE,132,5.0,5.0,50,0.00,OVC,FEW,0.00,0.0,WeatherDisplay:10.37,2013-02-08 05:19:00,
2013-02-08 00:24:00,2.7,-11.8,30.56,SE,133,2.3,2.3,50,0.00,OVC,FEW,0.00,0.0,WeatherDisplay:10.37,2013-02-08 05:24:00,
2013-02-08 00:29:00,2.8,-11.7,30.55,SE,135,3.5,3.5,50,0.00,OVC,FEW,0.00,0.0,WeatherDisplay:10.37,2013-02-08 05:29:00,
2013-02-08 00:34:00,2.9,-11.6,30.55,SE,135,4.0,4.0,50,0.00,OVC,FEW,0.00,0.0,WeatherDisplay:10.37,2013-02-08 05:34:00,
2013-02-08 00:39:00,3.0,-11.9,30.55,SE,138,5.0,5.0,49,0.00,OVC,FEW,0.00,0.0,WeatherDisplay:10.37,2013-02-08 05:39:00,
2013-02-08 00:44:00,3.0,-11.5,30.55,SE,137,2.3,2.3,50,0.00,OVC,FEW,0.00,0.0,WeatherDisplay:10.37,2013-02-08 05:44:00,
2013-02-08 00:49:00,3.0,-11.5,30.56,SE,137,2.3,2.3,50,0.00,OVC,FEW,0.00,0.0,WeatherDisplay:10.37,2013-02-08 05:49:00,
2013-02-08 00:54:00,3.0,-11.1,30.56,SE,137,2.3,2.3,51,0.00,OVC,FEW,0.00,0.0,WeatherDisplay:10.37,2013-02-08 05:54:00,
2013-02-08 00:59:00,3.0,-11.5,30.56,SE,137,1.1,1.1,50,0.00,OVC,FEW,0.00,0.0,WeatherDisplay:10.37,2013-02-08 05:59:00,
2013-02-08 01:06:00,3.0,-11.5,30.56,SE,137,1.0,3.0,50,0.00,OVC,FEW,0.00,0.0,WeatherDisplay:10.37,2013-02-08 06:06:00,
2013-02-08 01:11:00,3.1,-11.4,30.56,SE,134,3.0,3.0,50,0.00,OVC,FEW,0.00,0.0,WeatherDisplay:10.37,2013-02-08 06:11:00,
2013-02-08 01:16:00,3.1,-11.4,30.56,SE,127,5.0,5.0,50,0.00,OVC,FEW,0.00,0.0,WeatherDisplay:10.37,2013-02-08 06:16:00,
2013-02-08 01:21:00,3.2,-11.3,30.56,SE,130,3.5,3.5,50,0.00,OVC,FEW,0.00,0.0,WeatherDisplay:10.37,2013-02-08 06:21:00,
2013-02-08 01:26:00,3.3,-11.6,30.56,SE,138,4.0,4.0,49,0.00,OVC,FEW,0.00,0.0,WeatherDisplay:10.37,2013-02-08 06:26:00,
2013-02-08 01:31:00,3.4,-11.1,30.56,SE,124,3.5,3.5,50,0.00,OVC,FEW,0.00,0.0,WeatherDisplay:10.37,2013-02-08 06:31:00,
2013-02-08 01:36:00,3.5,-11.4,30.57,SE,133,4.0,4.0,49,0.00,OVC,FEW,0.00,0.0,WeatherDisplay:10.37,2013-02-08 06:36:00,
2013-02-08 01:41:00,3.6,-11.3,30.57,SE,131,5.8,5.8,49,0.00,OVC,FEW,0.00,0.0,WeatherDisplay:10.37,2013-02-08 06:41:00,
2013-02-08 01:48:00,3.7,-11.2,30.57,SE,134,7.0,7.0,49,0.00,OVC,FEW,0.00,0.0,WeatherDisplay:10.37,2013-02-08 06:48:00,
2013-02-08 01:53:00,3.8,-10.7,30.57,SE,126,9.0,9.0,50,0.00,OVC,FEW,0.00,0.0,WeatherDisplay:10.37,2013-02-08 06:53:00,
2013-02-08 01:58:00,4.0,-10.5,30.57,SE,142,6.0,6.0,50,0.00,OVC,FEW,0.00,0.0,WeatherDisplay:10.37,2013-02-08 06:58:00,
2013-02-08 02:03:00,4.0,-11.0,30.57,SSE,155,6.9,6.9,49,0.00,OVC,FEW,0.00,0.0,WeatherDisplay:10.37,2013-02-08 07:03:00,
2013-02-08 02:08:00,4.1,-10.5,30.57,SE,130,5.0,5.0,50,0.00,OVC,FEW,0.00,0.0,WeatherDisplay:10.37,2013-02-08 07:08:00,
2013-02-08 02:13:00,4.2,-9.6,30.56,South,169,5.0,5.0,52,0.00,OVC,FEW,0.00,0.0,WeatherDisplay:10.37,2013-02-08 07:13:00,
2013-02-08 02:18:00,4.3,-9.1,30.56,SSE,149,6.0,6.0,53,0.00,OVC,FEW,0.00,0.0,WeatherDisplay:10.37,2013-02-08 07:18:00,
2013-02-08 02:23:00,4.1,-8.9,30.56,SSE,148,3.0,3.0,54,0.00,OVC,FEW,0.00,0.0,WeatherDisplay:10.37,2013-02-08 07:23:00,
2013-02-08 02:28:00,4.2,-8.4,30.56,SE,140,5.0,5.0,55,0.00,OVC,FEW,0.00,0.0,WeatherDisplay:10.37,2013-02-08 07:28:00,
2013-02-08 02:33:00,4.1,-7.8,30.55,SE,142,7.0,7.0,57,0.00,OVC,FEW,0.00,0.0,WeatherDisplay:10.37,2013-02-08 07:33:00,
2013-02-08 02:38:00,4.1,-7.4,30.55,SE,138,6.0,6.0,58,0.00,OVC,FEW,0.00,0.0,WeatherDisplay:10.37,2013-02-08 07:38:00,
2013-02-08 02:43:00,4.0,-7.2,30.55,SE,138,3.5,3.5,59,0.00,OVC,FEW,0.00,0.0,WeatherDisplay:10.37,2013-02-08 07:43:00,
2013-02-08 02:48:00,3.9,-6.9,30.55,SE,146,4.0,4.0,60,0.00,OVC,FEW,0.00,0.0,WeatherDisplay:10.37,2013-02-08 07:48:00,
2013-02-08 02:53:00,3.8,-6.3,30.54,SE,140,3.5,3.5,62,0.00,OVC,FEW,0.00,0.0,WeatherDisplay:10.37,2013-02-08 07:53:00,
2013-02-08 02:59:00,3.9,-5.6,30.55,SE,141,4.0,4.0,64,0.00,OVC,FEW,0.00,0.0,WeatherDisplay:10.37,2013-02-08 07:59:00,
2013-02-08 03:04:00,3.9,-4.6,30.55,SE,139,5.0,5.0,67,0.00,OVC,FEW,0.00,0.0,WeatherDisplay:10.37,2013-02-08 08:04:00,
2013-02-08 03:09:00,4.0,-3.6,30.55,SE,130,9.2,9.2,70,0.00,OVC,FEW,0.00,0.0,WeatherDisplay:10.37,2013-02-08 08:09:00,
2013-02-08 03:14:00,3.9,-3.4,30.55,SE,140,10.0,10.0,71,0.00,OVC,FEW,0.00,0.0,WeatherDisplay:10.37,2013-02-08 08:14:00,
2013-02-08 03:19:00,3.7,-3.0,30.54,SE,143,7.0,7.0,73,0.00,OVC,FEW,0.00,0.0,WeatherDisplay:10.37,2013-02-08 08:19:00,
2013-02-08 03:24:00,3.6,-2.8,30.54,SE,126,7.0,7.0,74,0.00,OVC,FEW,0.00,0.0,WeatherDisplay:10.37,2013-02-08 08:24:00,
2013-02-08 03:29:00,3.6,-2.6,30.54,SE,136,6.0,6.0,75,0.00,OVC,FEW,0.00,0.0,WeatherDisplay:10.37,2013-02-08 08:29:00,
2013-02-08 03:34:00,3.5,-2.4,30.54,SE,139,5.0,5.0,76,0.00,OVC,FEW,0.00,0.0,WeatherDisplay:10.37,2013-02-08 08:34:00,
2013-02-08 03:39:00,3.5,-2.7,30.54,SE,126,11.0,11.0,75,0.00,OVC,FEW,0.00,0.0,WeatherDisplay:10.37,2013-02-08 08:39:00,
2013-02-08 03:44:00,3.5,-2.4,30.53,SE,125,9.2,9.2,76,0.00,OVC,FEW,0.00,0.0,WeatherDisplay:10.37,2013-02-08 08:44:00,
2013-02-08 03:49:00,3.4,-1.9,30.53,SE,141,5.8,5.8,78,0.00,OVC,FEW,0.00,0.0,WeatherDisplay:10.37,2013-02-08 08:49:00,
2013-02-08 03:54:00,3.4,-1.4,30.52,SSE,149,9.2,9.2,80,0.00,OVC,FEW,0.00,0.0,WeatherDisplay:10.37,2013-02-08 08:54:00,
2013-02-08 03:59:00,3.4,-1.1,30.53,SE,128,5.0,5.0,81,0.00,OVC,FEW,0.00,0.0,WeatherDisplay:10.37,2013-02-08 08:59:00,
2013-02-08 04:04:00,3.4,-0.9,30.52,SSE,155,3.5,3.5,82,0.00,OVC,FEW,0.00,0.0,WeatherDisplay:10.37,2013-02-08 09:04:00,
2013-02-08 04:09:00,3.5,-0.5,30.52,SE,129,5.0,5.0,83,0.00,OVC,FEW,0.00,0.0,WeatherDisplay:10.37,2013-02-08 09:09:00,
2013-02-08 04:14:00,3.4,-0.3,30.52,SE,134,6.0,6.0,84,0.00,OVC,FEW,0.00,0.0,WeatherDisplay:10.37,2013-02-08 09:14:00,
2013-02-08 04:19:00,3.4,-0.3,30.51,SE,134,4.0,4.0,84,0.00,OVC,FEW,0.00,0.0,WeatherDisplay:10.37,2013-02-08 09:19:00,
2013-02-08 04:24:00,3.5,-0.2,30.51,SE,135,2.0,2.0,84,0.00,OVC,FEW,0.00,0.0,WeatherDisplay:10.37,2013-02-08 09:24:00,
2013-02-08 04:29:00,3.6,0.1,30.50,SE,144,5.0,5.0,85,0.00,OVC,FEW,0.00,0.0,WeatherDisplay:10.37,2013-02-08 09:29:00,
2013-02-08 04:34:00,3.7,0.2,30.50,SSE,150,5.8,5.8,85,0.00,OVC,FEW,0.00,0.0,WeatherDisplay:10.37,2013-02-08 09:34:00,
2013-02-08 04:39:00,3.8,0.3,30.50,SSE,153,4.6,4.6,85,0.00,OVC,FEW,0.00,0.0,WeatherDisplay:10.37,2013-02-08 09:39:00,
2013-02-08 04:44:00,3.9,0.4,30.50,South,175,5.8,5.8,85,0.00,OVC,FEW,0.00,0.0,WeatherDisplay:10.37,2013-02-08 09:44:00,
2013-02-08 04:49:00,4.0,0.5,30.50,SE,134,6.0,6.0,85,0.00,OVC,FEW,0.00,0.0,WeatherDisplay:10.37,2013-02-08 09:49:00,
2013-02-08 04:54:00,4.0,0.5,30.49,SE,145,8.0,8.0,85,0.00,OVC,FEW,0.00,0.0,WeatherDisplay:10.37,2013-02-08 09:54:00,
2013-02-08 04:59:00,3.9,0.4,30.49,SSE,150,7.0,7.0,85,0.00,OVC,FEW,0.00,0.0,WeatherDisplay:10.37,2013-02-08 09:59:00,
2013-02-08 05:04:00,3.9,0.4,30.49,SE,136,4.0,4.0,85,0.00,-SN,FEW,0.00,0.0,WeatherDisplay:10.37,2013-02-08 10:04:00,
2013-02-08 05:09:00,3.9,0.4,30.49,SSE,147,5.0,5.0,85,0.00,-SN,FEW,0.00,0.0,WeatherDisplay:10.37,2013-02-08 10:09:00,
2013-02-08 05:14:00,3.9,0.4,30.49,SE,138,6.0,6.0,85,0.00,-SN,FEW,0.00,0.0,WeatherDisplay:10.37,2013-02-08 10:14:00,
2013-02-08 05:19:00,3.9,0.4,30.49,SE,136,6.0,6.0,85,0.00,-SN,FEW,0.00,0.0,WeatherDisplay:10.37,2013-02-08 10:19:00,
2013-02-08 05:24:00,3.9,0.6,30.49,ESE,117,5.0,5.0,86,0.00,-SN,FEW,0.00,0.0,WeatherDisplay:10.37,2013-02-08 10:24:00,
2013-02-08 05:29:00,4.0,3.3,30.49,SE,145,6.0,6.0,97,0.00,-SN,FEW,0.00,0.0,WeatherDisplay:10.37,2013-02-08 10:29:00,
2013-02-08 05:34:00,4.1,0.8,30.49,SSE,148,10.4,10.4,86,0.00,-SN,FEW,0.00,0.0,WeatherDisplay:10.37,2013-02-08 10:34:00,
2013-02-08 05:39:00,4.1,0.8,30.49,SE,142,9.2,9.2,86,0.00,-SN,FEW,0.00,0.0,WeatherDisplay:10.37,2013-02-08 10:39:00,
2013-02-08 05:44:00,4.2,0.9,30.49,SE,131,11.0,11.0,86,0.00,-SN,FEW,0.00,0.0,WeatherDisplay:10.37,2013-02-08 10:44:00,
2013-02-08 05:49:00,4.1,0.3,30.49,SE,146,10.4,10.4,84,0.00,-SN,FEW,0.00,0.0,WeatherDisplay:10.37,2013-02-08 10:49:00,
2013-02-08 05:54:00,4.0,0.2,30.49,SE,125,11.0,11.0,84,0.00,-SN,FEW,0.00,0.0,WeatherDisplay:10.37,2013-02-08 10:54:00,
2013-02-08 05:59:00,3.9,0.1,30.49,SSE,161,6.9,6.9,84,0.00,-SN,FEW,0.00,0.0,WeatherDisplay:10.37,2013-02-08 10:59:00,
2013-02-08 06:04:00,3.9,0.1,30.49,SE,136,7.0,7.0,84,0.00,-SN,FEW,0.00,0.0,WeatherDisplay:10.37,2013-02-08 11:04:00,
2013-02-08 06:09:00,3.9,0.1,30.48,South,175,11.5,11.5,84,0.00,-SN,FEW,0.00,0.0,WeatherDisplay:10.37,2013-02-08 11:09:00,
2013-02-08 06:14:00,4.0,0.5,30.48,SE,144,12.0,12.0,85,0.00,-SN,FEW,0.00,0.0,WeatherDisplay:10.37,2013-02-08 11:14:00,
2013-02-08 06:19:00,4.0,0.7,30.48,SSE,154,9.2,9.2,86,0.00,-SN,FEW,0.00,0.0,WeatherDisplay:10.37,2013-02-08 11:19:00,
2013-02-08 06:24:00,4.2,0.7,30.48,ESE,117,14.0,14.0,85,0.00,-SN,FEW,0.00,0.0,WeatherDisplay:10.37,2013-02-08 11:24:00,
2013-02-08 06:29:00,4.2,0.7,30.48,South,175,6.0,6.0,85,0.00,-SN,FEW,0.00,0.0,WeatherDisplay:10.37,2013-02-08 11:29:00,
2013-02-08 06:34:00,4.1,0.6,30.48,South,176,9.2,9.2,85,0.00,-SN,FEW,0.00,0.0,WeatherDisplay:10.37,2013-02-08 11:34:00,
2013-02-08 06:39:00,4.1,0.3,30.48,South,180,9.2,9.2,84,0.00,-SN,FEW,0.00,0.0,WeatherDisplay:10.37,2013-02-08 11:39:00,
2013-02-08 06:44:00,4.2,0.4,30.48,SE,141,9.2,9.2,84,0.00,-SN,FEW,0.00,0.0,WeatherDisplay:10.37,2013-02-08 11:44:00,
2013-02-08 06:49:00,4.3,0.5,30.48,SSE,156,9.2,9.2,84,0.00,-SN,FEW,0.00,0.0,WeatherDisplay:10.37,2013-02-08 11:49:00,
2013-02-08 06:54:00,4.2,0.4,30.49,SE,146,6.0,6.0,84,0.00,-SN,FEW,0.00,0.0,WeatherDisplay:10.37,2013-02-08 11:54:00,
2013-02-08 06:59:00,4.2,0.4,30.48,SE,134,11.5,11.5,84,0.00,-SN,FEW,0.00,0.0,WeatherDisplay:10.37,2013-02-08 11:59:00,
2013-02-08 07:04:00,4.2,0.4,30.48,SSE,159,11.0,11.0,84,0.00,-SN,FEW,0.00,0.0,WeatherDisplay:10.37,2013-02-08 12:04:00,
2013-02-08 07:09:00,4.2,0.4,30.48,SSE,152,5.0,5.0,84,0.00,-SN,FEW,0.00,5.0,WeatherDisplay:10.37,2013-02-08 12:09:00,
2013-02-08 07:14:00,4.2,0.4,30.47,SE,132,7.0,7.0,84,0.00,-SN,FEW,0.00,11.0,WeatherDisplay:10.37,2013-02-08 12:14:00,
2013-02-08 07:19:00,4.4,0.9,30.48,SE,127,10.4,10.4,85,0.00,-SN,FEW,0.00,18.0,WeatherDisplay:10.37,2013-02-08 12:19:00,
2013-02-08 07:24:00,4.6,0.8,30.48,SE,136,11.5,11.5,84,0.00,-SN,FEW,0.00,21.0,WeatherDisplay:10.37,2013-02-08 12:24:00,
2013-02-08 07:29:00,4.7,0.9,30.48,SE,134,9.0,9.0,84,0.00,-SN,FEW,0.00,18.0,WeatherDisplay:10.37,2013-02-08 12:29:00,
2013-02-08 07:34:00,4.9,1.4,30.48,SE,131,9.2,9.2,85,0.00,-SN,FEW,0.00,18.0,WeatherDisplay:10.37,2013-02-08 12:34:00,
2013-02-08 07:39:00,5.0,1.2,30.48,SSW,192,9.2,9.2,84,0.00,-SN,FEW,0.00,18.0,WeatherDisplay:10.37,2013-02-08 12:39:00,
2013-02-08 07:44:00,5.1,1.3,30.48,SSE,162,9.2,9.2,84,0.00,-SN,FEW,0.00,21.0,WeatherDisplay:10.37,2013-02-08 12:44:00,
2013-02-08 07:49:00,5.1,1.3,30.48,South,175,5.8,5.8,84,0.00,-SN,FEW,0.00,26.0,WeatherDisplay:10.37,2013-02-08 12:49:00,
2013-02-08 07:54:00,5.3,1.5,30.48,SSE,162,6.9,6.9,84,0.00,-SN,FEW,0.00,33.0,WeatherDisplay:10.37,2013-02-08 12:54:00,
2013-02-08 07:59:00,5.3,1.5,30.48,South,189,7.0,7.0,84,0.00,-SN,FEW,0.00,39.0,WeatherDisplay:10.37,2013-02-08 12:59:00,
2013-02-08 08:04:00,5.4,1.6,30.48,SE,134,9.2,9.2,84,0.00,-SN,FEW,0.00,42.0,WeatherDisplay:10.37,2013-02-08 13:04:00,
2013-02-08 08:09:00,5.4,1.6,30.47,SE,142,10.4,10.4,84,0.00,-SN,FEW,0.00,44.0,WeatherDisplay:10.37,2013-02-08 13:09:00,
2013-02-08 08:14:00,5.4,1.4,30.48,South,175,12.0,12.0,83,0.00,-SN,FEW,0.00,53.0,WeatherDisplay:10.37,2013-02-08 13:14:00,
2013-02-08 08:19:00,5.5,1.7,30.48,SSE,157,11.5,11.5,84,0.00,-SN,FEW,0.00,62.0,WeatherDisplay:10.37,2013-02-08 13:19:00,
2013-02-08 08:24:00,5.5,1.7,30.47,SSE,153,12.0,12.0,84,0.00,-SN,FEW,0.00,74.0,WeatherDisplay:10.37,2013-02-08 13:24:00,
2013-02-08 08:30:00,5.8,2.0,30.47,South,175,8.1,8.1,84,0.00,-SN,FEW,0.00,91.0,WeatherDisplay:10.37,2013-02-08 13:30:00,
2013-02-08 08:35:00,5.9,2.1,30.47,South,176,11.5,11.5,84,0.00,-SN,FEW,0.00,90.0,WeatherDisplay:10.37,2013-02-08 13:35:00,
2013-02-08 08:40:00,5.9,2.1,30.47,ESE,115,10.4,10.4,84,0.00,-SN,FEW,0.00,90.0,WeatherDisplay:10.37,2013-02-08 13:40:00,
2013-02-08 08:45:00,6.1,2.0,30.46,South,187,11.5,11.5,83,0.00,-SN,FEW,0.00,100.0,WeatherDisplay:10.37,2013-02-08 13:45:00,
2013-02-08 08:50:00,6.2,2.1,30.47,SSE,166,10.4,10.4,83,0.00,-SN,FEW,0.00,107.0,WeatherDisplay:10.37,2013-02-08 13:50:00,
2013-02-08 08:55:00,6.3,2.2,30.46,SE,132,13.0,13.0,83,0.00,-SN,FEW,0.00,113.0,WeatherDisplay:10.37,2013-02-08 13:55:00,
2013-02-08 09:00:00,6.3,2.2,30.46,SSE,162,11.0,11.0,83,0.00,-SN,FEW,0.00,111.0,WeatherDisplay:10.37,2013-02-08 14:00:00,
2013-02-08 09:05:00,6.4,2.1,30.46,SE,132,11.5,11.5,82,0.00,-SN,FEW,0.00,137.0,WeatherDisplay:10.37,2013-02-08 14:05:00,
2013-02-08 09:10:00,6.6,2.3,30.46,ESE,118,13.0,13.0,82,0.00,-SN,FEW,0.00,139.0,WeatherDisplay:10.37,2013-02-08 14:10:00,
2013-02-08 09:15:00,6.7,2.4,30.46,East,94,12.0,12.0,82,0.00,-SN,FEW,0.00,176.0,WeatherDisplay:10.37,2013-02-08 14:15:00,
2013-02-08 09:20:00,6.7,2.4,30.45,SSE,157,11.5,11.5,82,0.00,-SN,FEW,0.00,165.0,WeatherDisplay:10.37,2013-02-08 14:20:00,
2013-02-08 09:25:00,6.8,2.7,30.45,SSE,167,11.5,11.5,83,0.00,-SN,FEW,0.00,179.0,WeatherDisplay:10.37,2013-02-08 14:25:00,
2013-02-08 09:30:00,6.9,2.6,30.45,SSE,153,9.2,9.2,82,0.00,-SN,FEW,0.00,172.0,WeatherDisplay:10.37,2013-02-08 14:30:00,
2013-02-08 09:35:00,7.0,2.7,30.45,SE,127,11.5,11.5,82,0.00,-SN,FEW,0.00,148.0,WeatherDisplay:10.37,2013-02-08 14:35:00,
2013-02-08 09:40:00,7.1,3.0,30.45,SSE,161,9.2,9.2,83,0.00,-SN,FEW,0.00,158.0,WeatherDisplay:10.37,2013-02-08 14:40:00,
2013-02-08 09:45:00,7.3,3.0,30.44,SSE,156,14.0,14.0,82,0.00,-SN,FEW,0.00,176.0,WeatherDisplay:10.37,2013-02-08 14:45:00,
2013-02-08 09:50:00,7.3,3.2,30.44,SSW,193,16.0,16.0,83,0.00,-SN,FEW,0.00,155.0,WeatherDisplay:10.37,2013-02-08 14:50:00,
2013-02-08 09:55:00,7.4,3.3,30.44,South,178,11.5,11.5,83,0.00,-SN,FEW,0.00,162.0,WeatherDisplay:10.37,2013-02-08 14:55:00,
2013-02-08 10:00:00,7.5,3.4,30.44,SSE,157,12.0,12.0,83,0.00,-SN,FEW,0.00,146.0,WeatherDisplay:10.37,2013-02-08 15:00:00,
2013-02-08 10:05:00,7.5,3.7,30.44,SSE,158,10.4,10.4,84,0.00,-SN,FEW,0.00,149.0,WeatherDisplay:10.37,2013-02-08 15:05:00,
2013-02-08 10:10:00,7.7,3.9,30.43,ESE,115,11.5,11.5,84,0.00,-SN,FEW,0.00,137.0,WeatherDisplay:10.37,2013-02-08 15:10:00,
2013-02-08 10:15:00,7.8,4.0,30.43,South,187,13.0,13.0,84,0.00,-SN,FEW,0.00,142.0,WeatherDisplay:10.37,2013-02-08 15:15:00,
2013-02-08 10:20:00,7.9,4.3,30.43,SE,126,8.1,8.1,85,0.00,-SN,FEW,0.00,137.0,WeatherDisplay:10.37,2013-02-08 15:20:00,
2013-02-08 10:25:00,8.1,4.5,30.42,SSE,158,13.0,13.0,85,0.00,-SN,FEW,0.00,151.0,WeatherDisplay:10.37,2013-02-08 15:25:00,
2013-02-08 10:30:00,8.2,4.6,30.42,SSE,159,12.0,12.0,85,0.00,-SN,FEW,0.00,160.0,WeatherDisplay:10.37,2013-02-08 15:30:00,
2013-02-08 10:35:00,8.5,4.9,30.42,SE,125,15.0,15.0,85,0.00,-SN,FEW,0.00,165.0,WeatherDisplay:10.37,2013-02-08 15:35:00,
2013-02-08 10:40:00,8.6,5.0,30.42,SSE,151,12.7,12.7,85,0.00,-SN,FEW,0.00,171.0,WeatherDisplay:10.37,2013-02-08 15:40:00,
2013-02-08 10:45:00,8.9,5.3,30.42,SE,138,10.4,10.4,85,0.00,-SN,FEW,0.00,176.0,WeatherDisplay:10.37,2013-02-08 15:45:00,
2013-02-08 10:50:00,8.9,5.3,30.41,East,98,13.0,13.0,85,0.00,-SN,FEW,0.00,172.0,WeatherDisplay:10.37,2013-02-08 15:50:00,
2013-02-08 10:55:00,9.1,5.2,30.41,South,176,12.0,12.0,84,0.00,-SN,FEW,0.00,195.0,WeatherDisplay:10.37,2013-02-08 15:55:00,
2013-02-08 11:00:00,9.2,5.6,30.41,SE,142,20.0,20.0,85,0.00,-SN,FEW,0.00,214.0,WeatherDisplay:10.37,2013-02-08 16:00:00,
2013-02-08 11:05:00,9.3,5.4,30.41,SE,130,22.0,22.0,84,0.00,-SN,FEW,0.00,211.0,WeatherDisplay:10.37,2013-02-08 16:05:00,
2013-02-08 11:11:00,9.3,5.4,30.40,ESE,109,19.6,19.6,84,0.00,-SN,FEW,0.00,214.0,WeatherDisplay:10.37,2013-02-08 16:11:00,
2013-02-08 11:16:00,9.5,5.6,30.39,SE,131,19.6,19.6,84,0.00,-SN,FEW,0.00,213.0,WeatherDisplay:10.37,2013-02-08 16:16:00,
2013-02-08 11:21:00,9.6,5.7,30.39,SE,125,22.0,22.0,84,0.00,-SN,FEW,0.00,230.0,WeatherDisplay:10.37,2013-02-08 16:21:00,
2013-02-08 11:26:00,9.8,5.9,30.39,SE,124,18.4,18.4,84,0.00,-SN,FEW,0.00,232.0,WeatherDisplay:10.37,2013-02-08 16:26:00,
2013-02-08 11:31:00,10.0,5.9,30.38,SE,132,15.0,15.0,83,0.00,-SN,FEW,0.00,227.0,WeatherDisplay:10.37,2013-02-08 16:31:00,
2013-02-08 11:36:00,10.2,6.3,30.38,SSE,156,12.7,12.7,84,0.00,-SN,FEW,0.00,241.0,WeatherDisplay:10.37,2013-02-08 16:36:00,
2013-02-08 11:41:00,10.4,6.3,30.38,ESE,115,19.6,19.6,83,0.00,-SN,FEW,0.00,239.0,WeatherDisplay:10.37,2013-02-08 16:41:00,
2013-02-08 11:46:00,10.5,6.4,30.38,South,188,12.0,12.0,83,0.00,-SN,FEW,0.00,285.0,WeatherDisplay:10.37,2013-02-08 16:46:00,
2013-02-08 11:51:00,10.8,6.7,30.38,SE,144,14.0,14.0,83,0.00,-SN,FEW,0.00,290.0,WeatherDisplay:10.37,2013-02-08 16:51:00,
2013-02-08 11:56:00,11.0,6.8,30.38,SE,127,14.0,14.0,83,0.00,-SN,FEW,0.00,283.0,WeatherDisplay:10.37,2013-02-08 16:56:00,
2013-02-08 12:01:00,11.1,6.7,30.37,ESE,115,17.3,17.3,82,0.00,-SN,FEW,0.00,283.0,WeatherDisplay:10.37,2013-02-08 17:01:00,
2013-02-08 12:06:00,11.1,6.9,30.37,South,170,13.0,13.0,83,0.00,-SN,FEW,0.00,271.0,WeatherDisplay:10.37,2013-02-08 17:06:00,
2013-02-08 12:11:00,11.2,7.0,30.37,SSE,163,17.0,17.0,83,0.00,-SN,FEW,0.00,237.0,WeatherDisplay:10.37,2013-02-08 17:11:00,
2013-02-08 12:16:00,11.1,6.7,30.36,SSE,151,16.1,16.1,82,0.00,-SN,FEW,0.00,230.0,WeatherDisplay:10.37,2013-02-08 17:16:00,
2013-02-08 12:22:00,11.1,6.9,30.36,SSE,148,13.8,13.8,83,0.00,-SN,FEW,0.00,225.0,WeatherDisplay:10.37,2013-02-08 17:22:00,
2013-02-08 12:27:00,11.3,7.4,30.36,South,170,11.5,11.5,84,0.00,-SN,FEW,0.00,202.0,WeatherDisplay:10.37,2013-02-08 17:27:00,
2013-02-08 12:33:00,11.3,7.1,30.35,South,183,21.0,21.0,83,0.00,-SN,FEW,0.00,199.0,WeatherDisplay:10.37,2013-02-08 17:33:00,
2013-02-08 12:38:00,11.3,7.1,30.35,ESE,109,17.3,17.3,83,0.00,-SN,FEW,0.00,195.0,WeatherDisplay:10.37,2013-02-08 17:38:00,
2013-02-08 12:43:00,11.3,7.4,30.35,SE,134,19.0,19.0,84,0.00,-SN,FEW,0.00,190.0,WeatherDisplay:10.37,2013-02-08 17:43:00,
2013-02-08 12:48:00,11.3,7.4,30.34,SSE,151,18.0,18.0,84,0.00,-SN,FEW,0.00,172.0,WeatherDisplay:10.37,2013-02-08 17:48:00,
2013-02-08 12:53:00,11.3,7.1,30.34,South,180,21.0,21.0,83,0.00,-SN,FEW,0.00,171.0,WeatherDisplay:10.37,2013-02-08 17:53:00,
2013-02-08 12:58:00,11.2,7.0,30.33,SE,136,19.6,19.6,83,0.00,-SN,FEW,0.00,169.0,WeatherDisplay:10.37,2013-02-08 17:58:00,
2013-02-08 13:03:00,11.3,7.1,30.33,South,180,17.0,17.0,83,0.00,-SN,FEW,0.00,171.0,WeatherDisplay:10.37,2013-02-08 18:03:00,
2013-02-08 13:08:00,11.3,7.1,30.33,SSE,153,23.0,23.0,83,0.00,-SN,FEW,0.00,165.0,WeatherDisplay:10.37,2013-02-08 18:08:00,
2013-02-08 13:13:00,11.3,7.1,30.33,SSE,167,14.0,14.0,83,0.00,-SN,FEW,0.00,167.0,WeatherDisplay:10.37,2013-02-08 18:13:00,
2013-02-08 13:18:00,11.5,7.3,30.32,SSE,155,13.0,13.0,83,0.00,-SN,FEW,0.00,160.0,WeatherDisplay:10.37,2013-02-08 18:18:00,
2013-02-08 13:23:00,11.5,7.6,30.32,SE,128,15.0,15.0,84,0.00,-SN,FEW,0.00,155.0,WeatherDisplay:10.37,2013-02-08 18:23:00,
2013-02-08 13:28:00,11.6,7.4,30.32,SSE,154,10.4,10.4,83,0.00,-SN,FEW,0.00,149.0,WeatherDisplay:10.37,2013-02-08 18:28:00,
2013-02-08 13:34:00,11.5,7.1,30.32,ESE,123,22.0,22.0,82,0.00,-SN,FEW,0.00,141.0,WeatherDisplay:10.37,2013-02-08 18:34:00,
2013-02-08 13:39:00,11.5,7.3,30.31,SSE,155,19.6,19.6,83,0.00,-SN,FEW,0.00,139.0,WeatherDisplay:10.37,2013-02-08 18:39:00,
2013-02-08 13:44:00,11.5,7.3,30.31,East,97,15.0,15.0,83,0.00,-SN,FEW,0.00,142.0,WeatherDisplay:10.37,2013-02-08 18:44:00,
2013-02-08 13:49:00,11.5,7.6,30.31,SSE,163,17.0,17.0,84,0.00,-SN,FEW,0.00,144.0,WeatherDisplay:10.37,2013-02-08 18:49:00,
2013-02-08 13:54:00,11.5,7.6,30.31,SE,127,18.0,18.0,84,0.00,-SN,FEW,0.00,139.0,WeatherDisplay:10.37,2013-02-08 18:54:00,
2013-02-08 13:59:00,11.4,7.5,30.31,SSE,159,17.3,17.3,84,0.00,-SN,FEW,0.00,135.0,WeatherDisplay:10.37,2013-02-08 18:59:00,
2013-02-08 14:04:00,11.4,7.5,30.31,SE,127,18.4,18.4,84,0.00,-SN,FEW,0.00,128.0,WeatherDisplay:10.37,2013-02-08 19:04:00,
2013-02-08 14:09:00,11.4,7.5,30.30,South,179,13.0,13.0,84,0.00,-SN,FEW,0.00,121.0,WeatherDisplay:10.37,2013-02-08 19:09:00,
2013-02-08 14:14:00,11.5,7.9,30.30,SSE,164,18.4,18.4,85,0.00,-SN,FEW,0.00,113.0,WeatherDisplay:10.37,2013-02-08 19:14:00,
2013-02-08 14:19:00,11.4,7.8,30.30,ESE,111,17.0,17.0,85,0.00,-SN,FEW,0.00,111.0,WeatherDisplay:10.37,2013-02-08 19:19:00,
2013-02-08 14:24:00,11.4,7.8,30.30,SE,138,14.0,14.0,85,0.00,-SN,FEW,0.00,107.0,WeatherDisplay:10.37,2013-02-08 19:24:00,
2013-02-08 14:29:00,11.4,7.5,30.29,SSE,148,17.3,17.3,84,0.00,-SN,FEW,0.00,104.0,WeatherDisplay:10.37,2013-02-08 19:29:00,
2013-02-08 14:34:00,11.4,7.5,30.29,SE,132,17.3,17.3,84,0.00,-SN,FEW,0.00,105.0,WeatherDisplay:10.37,2013-02-08 19:34:00,
2013-02-08 14:39:00,11.6,7.7,30.30,East,90,16.1,16.1,84,0.00,-SN,FEW,0.00,107.0,WeatherDisplay:10.37,2013-02-08 19:39:00,
2013-02-08 14:44:00,11.7,8.1,30.28,SE,131,18.4,18.4,85,0.00,-SN,FEW,0.00,105.0,WeatherDisplay:10.37,2013-02-08 19:44:00,
2013-02-08 14:49:00,11.8,7.9,30.28,ESE,119,11.5,11.5,84,0.00,-SN,FEW,0.00,104.0,WeatherDisplay:10.37,2013-02-08 19:49:00,
2013-02-08 14:54:00,11.8,7.9,30.27,SSE,157,9.2,9.2,84,0.00,-SN,FEW,0.00,105.0,WeatherDisplay:10.37,2013-02-08 19:54:00,
2013-02-08 14:59:00,11.8,7.9,30.28,ESE,110,20.0,20.0,84,0.00,-SN,FEW,0.00,105.0,WeatherDisplay:10.37,2013-02-08 19:59:00,
2013-02-08 15:04:00,11.9,8.0,30.27,ESE,112,13.0,13.0,84,0.00,-SN,FEW,0.00,105.0,WeatherDisplay:10.37,2013-02-08 20:04:00,
2013-02-08 15:09:00,11.9,7.7,30.27,East,79,15.0,15.0,83,0.00,-SN,FEW,0.00,104.0,WeatherDisplay:10.37,2013-02-08 20:09:00,
2013-02-08 15:14:00,11.8,7.6,30.26,SE,124,14.0,14.0,83,0.00,-SN,FEW,0.00,104.0,WeatherDisplay:10.37,2013-02-08 20:14:00,
2013-02-08 15:19:00,11.8,7.6,30.27,SSE,161,14.0,14.0,83,0.00,-SN,FEW,0.00,100.0,WeatherDisplay:10.37,2013-02-08 20:19:00,
2013-02-08 15:24:00,11.8,7.6,30.26,SE,129,14.0,14.0,83,0.00,-SN,FEW,0.00,97.0,WeatherDisplay:10.37,2013-02-08 20:24:00,
2013-02-08 15:29:00,11.7,7.3,30.26,ESE,115,19.6,19.6,82,0.00,-SN,FEW,0.00,93.0,WeatherDisplay:10.37,2013-02-08 20:29:00,
2013-02-08 15:34:00,11.7,7.5,30.26,SE,128,18.4,18.4,83,0.00,-SN,FEW,0.00,91.0,WeatherDisplay:10.37,2013-02-08 20:34:00,
2013-02-08 15:40:00,11.8,7.4,30.26,ESE,108,14.0,14.0,82,0.00,-SN,FEW,0.00,88.0,WeatherDisplay:10.37,2013-02-08 20:40:00,
2013-02-08 15:45:00,11.9,7.5,30.26,SE,127,18.4,18.4,82,0.00,-SN,FEW,0.00,76.0,WeatherDisplay:10.37,2013-02-08 20:45:00,
2013-02-08 15:50:00,12.0,7.3,30.26,ESE,111,12.0,12.0,81,0.00,-SN,FEW,0.00,67.0,WeatherDisplay:10.37,2013-02-08 20:50:00,
2013-02-08 15:55:00,12.0,7.3,30.25,ESE,103,16.0,16.0,81,0.00,-SN,FEW,0.00,63.0,WeatherDisplay:10.37,2013-02-08 20:55:00,
2013-02-08 16:00:00,12.1,7.4,30.26,SE,145,12.7,12.7,81,0.00,-SN,FEW,0.00,60.0,WeatherDisplay:10.37,2013-02-08 21:00:00,
2013-02-08 16:05:00,11.9,7.2,30.26,East,99,18.0,18.0,81,0.00,-SN,FEW,0.00,54.0,WeatherDisplay:10.37,2013-02-08 21:05:00,
2013-02-08 16:10:00,11.8,7.1,30.25,East,94,14.0,14.0,81,0.00,-SN,FEW,0.00,44.0,WeatherDisplay:10.37,2013-02-08 21:10:00,
2013-02-08 16:15:00,11.8,7.1,30.25,ESE,112,12.7,12.7,81,0.00,-SN,FEW,0.00,42.0,WeatherDisplay:10.37,2013-02-08 21:15:00,
2013-02-08 16:20:00,11.6,6.9,30.25,East,83,17.3,17.3,81,0.00,-SN,FEW,0.00,30.0,WeatherDisplay:10.37,2013-02-08 21:20:00,
2013-02-08 16:25:00,11.5,6.8,30.26,SE,136,19.6,19.6,81,0.00,-SN,FEW,0.00,21.0,WeatherDisplay:10.37,2013-02-08 21:25:00,
2013-02-08 16:30:00,11.3,6.6,30.26,SE,134,14.0,14.0,81,0.00,-SN,FEW,0.00,18.0,WeatherDisplay:10.37,2013-02-08 21:30:00,
2013-02-08 16:35:00,11.1,6.4,30.26,ESE,111,15.0,15.0,81,0.00,-SN,FEW,0.00,12.0,WeatherDisplay:10.37,2013-02-08 21:35:00,
2013-02-08 16:40:00,10.7,6.0,30.25,ESE,106,19.6,19.6,81,0.00,-SN,FEW,0.00,9.0,WeatherDisplay:10.37,2013-02-08 21:40:00,
2013-02-08 16:45:00,10.6,5.9,30.25,SE,138,17.3,17.3,81,0.00,-SN,FEW,0.00,5.0,WeatherDisplay:10.37,2013-02-08 21:45:00,
2013-02-08 16:50:00,10.3,5.6,30.25,SE,137,18.4,18.4,81,0.00,-SN,FEW,0.00,5.0,WeatherDisplay:10.37,2013-02-08 21:50:00,
2013-02-08 16:55:00,10.2,5.5,30.25,East,100,11.0,11.0,81,0.00,-SN,FEW,0.00,0.0,WeatherDisplay:10.37,2013-02-08 21:55:00,
2013-02-08 17:00:00,10.1,5.4,30.25,East,91,15.0,15.0,81,0.00,-SN,FEW,0.00,0.0,WeatherDisplay:10.37,2013-02-08 22:00:00,
2013-02-08 17:05:00,10.1,5.7,30.25,SSE,147,11.5,11.5,82,0.00,-SN,FEW,0.00,0.0,WeatherDisplay:10.37,2013-02-08 22:05:00,
2013-02-08 17:10:00,10.2,5.5,30.24,ESE,107,15.0,15.0,81,0.00,-SN,FEW,0.00,0.0,WeatherDisplay:10.37,2013-02-08 22:10:00,
2013-02-08 17:15:00,10.3,5.6,30.24,ESE,117,10.0,10.0,81,0.00,-SN,FEW,0.00,0.0,WeatherDisplay:10.37,2013-02-08 22:15:00,
2013-02-08 17:20:00,10.3,5.6,30.23,East,95,13.0,13.0,81,0.00,-SN,FEW,0.00,0.0,WeatherDisplay:10.37,2013-02-08 22:20:00,
2013-02-08 17:25:00,10.3,5.6,30.23,East,99,15.0,15.0,81,0.00,-SN,FEW,0.00,0.0,WeatherDisplay:10.37,2013-02-08 22:25:00,
2013-02-08 17:30:00,10.4,5.7,30.23,SE,136,18.4,18.4,81,0.00,-SN,FEW,0.00,0.0,WeatherDisplay:10.37,2013-02-08 22:30:00,
2013-02-08 17:35:00,10.4,5.7,30.23,ESE,107,13.0,13.0,81,0.00,-SN,FEW,0.00,0.0,WeatherDisplay:10.37,2013-02-08 22:35:00,
2013-02-08 17:40:00,10.3,5.6,30.23,East,88,13.0,13.0,81,0.00,-SN,FEW,0.00,0.0,WeatherDisplay:10.37,2013-02-08 22:40:00,
2013-02-08 17:45:00,10.3,5.6,30.23,ESE,117,14.0,14.0,81,0.00,-SN,FEW,0.00,0.0,WeatherDisplay:10.37,2013-02-08 22:45:00,
2013-02-08 17:50:00,10.3,5.6,30.23,ESE,105,12.0,12.0,81,0.00,-SN,FEW,0.00,0.0,WeatherDisplay:10.37,2013-02-08 22:50:00,
2013-02-08 17:55:00,10.2,5.5,30.23,SE,132,6.0,6.0,81,0.00,-SN,FEW,0.00,0.0,WeatherDisplay:10.37,2013-02-08 22:55:00,
2013-02-08 18:00:00,10.1,5.4,30.23,ESE,117,11.5,11.5,81,0.00,-SN,FEW,0.00,0.0,WeatherDisplay:10.37,2013-02-08 23:00:00,
2013-02-08 18:05:00,9.9,5.2,30.23,East,101,11.0,11.0,81,0.00,-SN,FEW,0.00,0.0,WeatherDisplay:10.37,2013-02-08 23:05:00,
2013-02-08 18:10:00,9.8,5.4,30.23,SE,132,7.0,7.0,82,0.00,-SN,FEW,0.00,0.0,WeatherDisplay:10.37,2013-02-08 23:10:00,
2013-02-08 18:15:00,9.5,4.8,30.22,East,90,15.0,15.0,81,0.00,-SN,FEW,0.00,0.0,WeatherDisplay:10.37,2013-02-08 23:15:00,
2013-02-08 18:20:00,9.1,4.5,30.22,SE,146,11.5,11.5,81,0.00,-SN,FEW,0.00,0.0,WeatherDisplay:10.37,2013-02-08 23:20:00,
2013-02-08 18:25:00,8.9,4.5,30.22,ESE,105,12.0,12.0,82,0.00,-SN,FEW,0.00,0.0,WeatherDisplay:10.37,2013-02-08 23:25:00,
2013-02-08 18:30:00,8.7,4.1,30.21,ESE,117,18.4,18.4,81,0.00,-SN,FEW,0.00,0.0,WeatherDisplay:10.37,2013-02-08 23:30:00,
2013-02-08 18:35:00,8.6,4.2,30.21,ESE,121,13.0,13.0,82,0.00,-SN,FEW,0.00,0.0,WeatherDisplay:10.37,2013-02-08 23:35:00,
2013-02-08 18:40:00,8.6,4.2,30.21,SE,137,13.0,13.0,82,0.00,-SN,FEW,0.00,0.0,WeatherDisplay:10.37,2013-02-08 23:40:00,
2013-02-08 18:45:00,8.3,3.7,30.21,East,90,11.5,11.5,81,0.00,-SN,FEW,0.00,0.0,WeatherDisplay:10.37,2013-02-08 23:45:00,
2013-02-08 18:50:00,8.1,3.5,30.21,ESE,113,15.0,15.0,81,0.00,-SN,FEW,0.00,0.0,WeatherDisplay:10.37,2013-02-08 23:50:00,
2013-02-08 18:55:00,7.9,3.5,30.20,ESE,105,17.0,17.0,82,0.00,-SN,FEW,0.00,0.0,WeatherDisplay:10.37,2013-02-08 23:55:00,
2013-02-08 19:00:00,7.8,3.4,30.21,SE,142,16.1,16.1,82,0.00,-SN,FEW,0.00,0.0,WeatherDisplay:10.37,2013-02-09 00:00:00,
2013-02-08 19:05:00,7.7,3.4,30.21,SSE,162,16.1,16.1,82,0.00,-SN,FEW,0.00,0.0,WeatherDisplay:10.37,2013-02-09 00:05:00,
2013-02-08 19:10:00,7.7,3.4,30.20,SE,124,17.0,17.0,82,0.00,-SN,FEW,0.00,0.0,WeatherDisplay:10.37,2013-02-09 00:10:00,
2013-02-08 19:15:00,7.8,3.4,30.20,ESE,112,21.0,21.0,82,0.00,-SN,FEW,0.00,0.0,WeatherDisplay:10.37,2013-02-09 00:15:00,
2013-02-08 19:20:00,7.7,3.1,30.21,ESE,113,13.0,13.0,81,0.00,-SN,FEW,0.00,0.0,WeatherDisplay:10.37,2013-02-09 00:20:00,
2013-02-08 19:25:00,7.8,3.2,30.20,ESE,105,18.0,18.0,81,0.00,-SN,FEW,0.00,0.0,WeatherDisplay:10.37,2013-02-09 00:25:00,
2013-02-08 19:31:00,7.9,3.3,30.20,ESE,109,12.0,12.0,81,0.00,-SN,FEW,0.00,0.0,WeatherDisplay:10.37,2013-02-09 00:31:00,
2013-02-08 19:36:00,8.0,3.4,30.19,East,101,25.0,25.0,81,0.00,-SN,FEW,0.00,0.0,WeatherDisplay:10.37,2013-02-09 00:36:00,
2013-02-08 19:41:00,8.2,3.6,30.19,ESE,104,17.3,17.3,81,0.00,-SN,FEW,0.00,0.0,WeatherDisplay:10.37,2013-02-09 00:41:00,
2013-02-08 19:46:00,8.2,3.6,30.19,ESE,102,15.0,15.0,81,0.00,-SN,FEW,0.00,0.0,WeatherDisplay:10.37,2013-02-09 00:46:00,
2013-02-08 19:51:00,8.1,3.5,30.19,SE,140,21.0,21.0,81,0.00,-SN,FEW,0.00,0.0,WeatherDisplay:10.37,2013-02-09 00:51:00,
2013-02-08 19:56:00,8.1,3.5,30.18,ESE,122,18.4,18.4,81,0.00,-SN,FEW,0.00,0.0,WeatherDisplay:10.37,2013-02-09 00:56:00,
2013-02-08 20:01:00,8.1,3.5,30.19,East,92,22.0,22.0,81,0.00,-SN,FEW,0.00,0.0,WeatherDisplay:10.37,2013-02-09 01:01:00,
2013-02-08 20:06:00,8.2,3.6,30.18,ESE,111,19.6,19.6,81,0.00,-SN,FEW,0.00,0.0,WeatherDisplay:10.37,2013-02-09 01:06:00,
2013-02-08 20:11:00,8.2,3.6,30.18,SE,136,13.0,13.0,81,0.00,-SN,FEW,0.00,0.0,WeatherDisplay:10.37,2013-02-09 01:11:00,
2013-02-08 20:16:00,8.2,3.6,30.18,ESE,121,13.0,13.0,81,0.00,-SN,FEW,0.00,0.0,WeatherDisplay:10.37,2013-02-09 01:16:00,
2013-02-08 20:21:00,8.3,3.7,30.18,ESE,122,21.9,21.9,81,0.00,-SN,FEW,0.00,0.0,WeatherDisplay:10.37,2013-02-09 01:21:00,
2013-02-08 20:26:00,8.4,3.5,30.18,East,100,14.0,14.0,80,0.00,-SN,FEW,0.00,0.0,WeatherDisplay:10.37,2013-02-09 01:26:00,
2013-02-08 20:31:00,8.5,3.6,30.17,ESE,112,13.0,13.0,80,0.00,-SN,FEW,0.00,0.0,WeatherDisplay:10.37,2013-02-09 01:31:00,
2013-02-08 20:36:00,8.6,3.7,30.17,East,94,19.6,19.6,80,0.00,-SN,FEW,0.00,0.0,WeatherDisplay:10.37,2013-02-09 01:36:00,
2013-02-08 20:41:00,8.8,3.9,30.17,ESE,116,15.0,15.0,80,0.00,-SN,FEW,0.00,0.0,WeatherDisplay:10.37,2013-02-09 01:41:00,
2013-02-08 20:46:00,8.8,3.9,30.16,ESE,105,23.0,23.0,80,0.00,-SN,FEW,0.00,0.0,WeatherDisplay:10.37,2013-02-09 01:46:00,
2013-02-08 20:51:00,8.9,4.0,30.15,East,92,14.0,14.0,80,0.00,-SN,FEW,0.00,0.0,WeatherDisplay:10.37,2013-02-09 01:51:00,
2013-02-08 20:56:00,8.9,4.0,30.15,SE,130,15.0,15.0,80,0.00,-SN,FEW,0.00,0.0,WeatherDisplay:10.37,2013-02-09 01:56:00,
2013-02-08 21:01:00,9.2,4.3,30.15,ESE,103,14.0,14.0,80,0.00,-SN,FEW,0.00,0.0,WeatherDisplay:10.37,2013-02-09 02:01:00,
2013-02-08 21:06:00,9.4,4.5,30.14,SE,137,11.5,11.5,80,0.00,-SN,FEW,0.00,0.0,WeatherDisplay:10.37,2013-02-09 02:06:00,
2013-02-08 21:11:00,9.5,4.8,30.14,East,90,13.0,13.0,81,0.00,-SN,FEW,0.00,0.0,WeatherDisplay:10.37,2013-02-09 02:11:00,
2013-02-08 21:16:00,9.7,4.8,30.14,SE,132,14.0,14.0,80,0.00,-SN,FEW,0.00,0.0,WeatherDisplay:10.37,2013-02-09 02:16:00,
2013-02-08 21:21:00,9.8,4.9,30.14,North,351,5.8,5.8,80,0.00,-SN,FEW,0.00,0.0,WeatherDisplay:10.37,2013-02-09 02:21:00,
2013-02-08 21:26:00,9.8,5.1,30.13,ENE,59,6.0,6.0,81,0.00,-SN,FEW,0.00,0.0,WeatherDisplay:10.37,2013-02-09 02:26:00,
2013-02-08 21:31:00,9.7,5.0,30.13,ESE,103,3.5,3.5,81,0.00,-SN,FEW,0.00,0.0,WeatherDisplay:10.37,2013-02-09 02:31:00,
2013-02-08 21:36:00,9.6,4.9,30.12,SE,133,8.1,8.1,81,0.00,-SN,FEW,0.00,0.0,WeatherDisplay:10.37,2013-02-09 02:36:00,
2013-02-08 21:41:00,9.5,4.6,30.12,ESE,119,3.5,3.5,80,0.00,-SN,FEW,0.00,0.0,WeatherDisplay:10.37,2013-02-09 02:41:00,
2013-02-08 21:46:00,9.5,4.6,30.12,ESE,117,6.0,6.0,80,0.00,-SN,FEW,0.00,0.0,WeatherDisplay:10.37,2013-02-09 02:46:00,
2013-02-08 21:51:00,9.5,4.8,30.12,ESE,107,5.8,5.8,81,0.00,-SN,FEW,0.00,0.0,WeatherDisplay:10.37,2013-02-09 02:51:00,
2013-02-08 21:56:00,9.3,4.6,30.11,SE,126,5.0,5.0,81,0.00,-SN,FEW,0.00,0.0,WeatherDisplay:10.37,2013-02-09 02:56:00,
2013-02-08 22:01:00,9.3,4.6,30.11,ESE,119,4.0,4.0,81,0.00,-SN,FEW,0.00,0.0,WeatherDisplay:10.37,2013-02-09 03:01:00,
2013-02-08 22:06:00,9.2,4.6,30.11,ESE,123,3.5,3.5,81,0.00,-SN,FEW,0.00,0.0,WeatherDisplay:10.37,2013-02-09 03:06:00,
2013-02-08 22:11:00,9.2,4.8,30.11,SE,125,2.0,2.0,82,0.00,-SN,FEW,0.00,0.0,WeatherDisplay:10.37,2013-02-09 03:11:00,
2013-02-08 22:16:00,9.1,4.5,30.10,ESE,117,4.0,4.0,81,0.00,-SN,FEW,0.00,0.0,WeatherDisplay:10.37,2013-02-09 03:16:00,
2013-02-08 22:21:00,9.0,4.6,30.10,SE,130,4.0,4.0,82,0.00,-SN,FEW,0.00,0.0,WeatherDisplay:10.37,2013-02-09 03:21:00,
2013-02-08 22:27:00,8.9,4.5,30.10,East,84,10.4,10.4,82,0.00,-SN,FEW,0.00,0.0,WeatherDisplay:10.37,2013-02-09 03:27:00,
2013-02-08 22:32:00,8.8,4.7,30.10,ESE,117,7.0,7.0,83,0.00,-SN,FEW,0.00,0.0,WeatherDisplay:10.37,2013-02-09 03:32:00,
2013-02-08 22:37:00,8.6,4.8,30.09,East,81,10.0,10.0,84,0.00,-SN,FEW,0.00,0.0,WeatherDisplay:10.37,2013-02-09 03:37:00,
2013-02-08 22:42:00,8.5,4.7,30.09,East,99,6.0,6.0,84,0.00,-SN,FEW,0.00,0.0,WeatherDisplay:10.37,2013-02-09 03:42:00,
2013-02-08 22:47:00,8.4,4.6,30.09,East,94,10.4,10.4,84,0.00,-SN,FEW,0.00,0.0,WeatherDisplay:10.37,2013-02-09 03:47:00,
2013-02-08 22:52:00,8.4,4.6,30.08,ESE,123,9.0,9.0,84,0.00,-SN,FEW,0.00,0.0,WeatherDisplay:10.37,2013-02-09 03:52:00,
2013-02-08 22:57:00,8.4,4.8,30.08,SSE,163,6.9,6.9,85,0.00,-SN,FEW,0.00,0.0,WeatherDisplay:10.37,2013-02-09 03:57:00,
2013-02-08 23:03:00,8.4,4.8,30.08,ESE,116,4.0,4.0,85,0.00,-SN,FEW,0.00,0.0,WeatherDisplay:10.37,2013-02-09 04:03:00,
2013-02-08 23:08:00,8.4,4.8,30.07,ENE,59,4.0,4.0,85,0.00,-SN,FEW,0.00,0.0,WeatherDisplay:10.37,2013-02-09 04:08:00,
2013-02-08 23:13:00,8.4,4.8,30.07,SSE,155,6.0,6.0,85,0.00,-SN,FEW,0.00,0.0,WeatherDisplay:10.37,2013-02-09 04:13:00,
2013-02-08 23:18:00,8.3,4.7,30.07,East,99,7.0,7.0,85,0.00,-SN,FEW,0.00,0.0,WeatherDisplay:10.37,2013-02-09 04:18:00,
2013-02-08 23:23:00,8.3,4.7,30.07,ESE,110,8.1,8.1,85,0.00,-SN,FEW,0.00,0.0,WeatherDisplay:10.37,2013-02-09 04:23:00,
2013-02-08 23:28:00,8.3,4.7,30.07,ENE,74,4.0,4.0,85,0.00,-SN,FEW,0.00,0.0,WeatherDisplay:10.37,2013-02-09 04:28:00,
2013-02-08 23:33:00,8.2,4.6,30.06,East,86,7.0,7.0,85,0.00,-SN,FEW,0.00,0.0,WeatherDisplay:10.37,2013-02-09 04:33:00,
2013-02-08 23:38:00,8.2,4.6,30.07,ENE,73,7.0,7.0,85,0.00,-SN,FEW,0.00,0.0,WeatherDisplay:10.37,2013-02-09 04:38:00,
2013-02-08 23:43:00,8.2,4.4,30.06,East,96,10.4,10.4,84,0.00,-SN,FEW,0.00,0.0,WeatherDisplay:10.37,2013-02-09 04:43:00,
2013-02-08 23:49:00,8.2,4.4,30.06,ESE,106,7.0,7.0,84,0.00,-SN,FEW,0.00,0.0,WeatherDisplay:10.37,2013-02-09 04:49:00,
2013-02-08 23:54:00,8.3,4.5,30.07,ESE,109,12.0,12.0,84,0.00,-SN,FEW,0.00,0.0,WeatherDisplay:10.37,2013-02-09 04:54:00,
2013-02-08 23:59:00,8.4,4.6,30.06,ESE,107,15.0,15.0,84,0.00,-SN,FEW,0.00,0.0,WeatherDisplay:10.37,2013-02-09 04:59:00,